Time;durP1;ratioP1;P1;durP2;ratioP2;P2;SDS_P1;SDS_P2;PMS_P1;PMS_P2;Temp;Humidity;BMP_temperature;BMP_pressure;BME280_temperature;BME280_humidity;BME280_pressure;Samples;Min_cycle;Max_cycle;Signal;HPM_P1;HPM_P2
2021/10/15 00:02:03;;;;;;;12.97;8.33;;;13.00;99.90;;;;;;5102099;28;20197;-47
2021/10/15 00:04:29;;;;;;;10.80;8.67;;;13.00;99.90;;;;;;5104588;28;20229;-44
2021/10/15 00:06:56;;;;;;;14.23;8.87;;;13.00;99.90;;;;;;5088826;27;20298;-49
2021/10/15 00:09:22;;;;;;;13.07;9.03;;;13.00;99.90;;;;;;5104859;28;20221;-51
2021/10/15 00:11:50;;;;;;;10.60;9.53;;;13.00;99.90;;;;;;5101829;27;20201;-47
2021/10/15 00:14:17;;;;;;;13.00;9.20;;;13.00;99.90;;;;;;5104960;28;20724;-48
2021/10/15 00:16:44;;;;;;;11.30;9.43;;;13.00;99.90;;;;;;5103103;28;20200;-51
2021/10/15 00:19:11;;;;;;;12.60;9.57;;;13.00;99.90;;;;;;5103248;28;20216;-51
2021/10/15 00:21:37;;;;;;;13.97;9.70;;;12.90;99.90;;;;;;5090973;27;20213;-49
2021/10/15 00:24:04;;;;;;;16.00;10.60;;;12.90;99.90;;;;;;5101981;28;21319;-49
2021/10/15 00:26:31;;;;;;;12.73;10.13;;;12.90;99.90;;;;;;5106118;27;20189;-49
2021/10/15 00:28:59;;;;;;;11.00;9.87;;;12.90;99.90;;;;;;5100820;28;20213;-44
2021/10/15 00:31:26;;;;;;;13.00;10.03;;;12.90;99.90;;;;;;5104597;28;20561;-45
2021/10/15 00:33:52;;;;;;;12.07;9.80;;;12.90;99.90;;;;;;5102543;28;20609;-49
2021/10/15 00:36:19;;;;;;;14.73;9.73;;;13.00;99.90;;;;;;5089615;27;20206;-49
2021/10/15 00:38:45;;;;;;;12.03;10.73;;;13.00;99.90;;;;;;5098926;27;20216;-48
2021/10/15 00:41:12;;;;;;;14.60;9.43;;;13.00;99.90;;;;;;5103165;28;20205;-49
2021/10/15 00:44:00;;;;;;;13.77;9.43;;;13.00;99.90;;;;;;5101037;28;21007;-50
2021/10/15 00:46:27;;;;;;;12.57;8.87;;;13.00;99.90;;;;;;5100575;28;20246;-48
2021/10/15 00:48:53;;;;;;;10.60;8.60;;;13.00;99.90;;;;;;5103672;28;20962;-47
2021/10/15 00:51:20;;;;;;;14.20;9.30;;;13.00;99.90;;;;;;5096710;27;20197;-54
2021/10/15 00:53:48;;;;;;;14.30;8.90;;;13.00;99.90;;;;;;5096942;27;20372;-45
2021/10/15 00:56:16;;;;;;;10.47;8.53;;;13.00;99.90;;;;;;5103622;28;20209;-50
2021/10/15 00:58:43;;;;;;;9.80;8.20;;;13.10;99.90;;;;;;5102491;28;20189;-50
2021/10/15 01:01:11;;;;;;;14.07;8.87;;;13.00;99.90;;;;;;5108805;28;20197;-53
2021/10/15 01:03:38;;;;;;;12.07;9.00;;;13.00;99.90;;;;;;5105144;28;20808;-51
2021/10/15 01:06:06;;;;;;;11.23;9.17;;;13.10;99.90;;;;;;5106691;27;20212;-50
2021/10/15 01:08:38;;;;;;;11.20;9.43;;;13.10;99.90;;;;;;5087112;27;20208;-45
2021/10/15 01:11:05;;;;;;;12.97;9.00;;;13.10;99.90;;;;;;5103712;28;20198;-45
2021/10/15 01:13:33;;;;;;;13.90;9.67;;;13.10;99.90;;;;;;5099850;28;20396;-51
2021/10/15 01:16:04;;;;;;;10.47;8.90;;;13.10;99.90;;;;;;5104085;28;20899;-44
2021/10/15 01:18:32;;;;;;;10.00;8.73;;;13.10;99.90;;;;;;5099930;28;20198;-51
2021/10/15 01:21:02;;;;;;;11.50;9.03;;;13.10;99.90;;;;;;5103770;28;20198;-44
2021/10/15 01:23:28;;;;;;;12.33;9.70;;;13.10;99.90;;;;;;5082688;27;20224;-54
2021/10/15 01:25:55;;;;;;;11.43;9.50;;;13.10;99.90;;;;;;5102578;27;20220;-48
2021/10/15 01:28:24;;;;;;;11.10;9.27;;;13.10;99.90;;;;;;5101441;28;20197;-53
2021/10/15 01:30:51;;;;;;;10.03;9.03;;;13.10;99.90;;;;;;5095377;28;20196;-48
2021/10/15 01:33:17;;;;;;;11.27;9.23;;;13.10;99.90;;;;;;5103869;28;20685;-46
2021/10/15 01:35:44;;;;;;;14.80;9.70;;;13.10;99.90;;;;;;5102429;28;20193;-50
2021/10/15 01:38:13;;;;;;;14.23;9.47;;;13.10;99.90;;;;;;5101831;28;20211;-52
2021/10/15 01:40:40;;;;;;;11.30;9.90;;;13.10;99.90;;;;;;5090627;28;20213;-52
2021/10/15 01:43:07;;;;;;;12.43;11.13;;;13.10;99.90;;;;;;5099947;28;20205;-46
2021/10/15 01:45:35;;;;;;;12.73;9.93;;;13.10;99.90;;;;;;5103880;28;20197;-45
2021/10/15 01:48:02;;;;;;;14.23;11.17;;;13.10;99.90;;;;;;5099695;28;20282;-45
2021/10/15 01:50:29;;;;;;;14.10;11.33;;;13.10;99.90;;;;;;5103497;28;20220;-51
2021/10/15 01:52:57;;;;;;;14.87;11.03;;;13.10;99.90;;;;;;5099827;28;20216;-45
2021/10/15 01:55:25;;;;;;;13.33;11.60;;;13.10;99.90;;;;;;5090235;28;20593;-48
2021/10/15 01:57:51;;;;;;;15.33;11.57;;;13.10;99.90;;;;;;5100750;28;20200;-56
2021/10/15 02:00:18;;;;;;;15.93;11.47;;;13.00;99.90;;;;;;5102334;28;20196;-46
2021/10/15 02:02:45;;;;;;;17.60;12.73;;;13.10;99.90;;;;;;5102351;28;20189;-50
2021/10/15 02:05:14;;;;;;;14.23;11.60;;;13.00;99.90;;;;;;5100149;28;20216;-45
2021/10/15 02:07:42;;;;;;;15.70;12.10;;;13.00;99.90;;;;;;5103157;28;20254;-54
2021/10/15 02:10:10;;;;;;;14.83;13.23;;;13.00;99.90;;;;;;5080896;28;20242;-50
2021/10/15 02:12:39;;;;;;;18.73;13.43;;;13.00;99.90;;;;;;5103648;28;20547;-52
2021/10/15 02:15:07;;;;;;;19.23;13.27;;;13.00;99.90;;;;;;5104957;28;20248;-52
2021/10/15 02:17:34;;;;;;;16.97;13.97;;;12.90;99.90;;;;;;5107772;28;20197;-53
2021/10/15 02:20:02;;;;;;;15.70;12.53;;;12.90;99.90;;;;;;5102300;28;20197;-44
2021/10/15 02:22:28;;;;;;;17.73;13.70;;;12.90;99.90;;;;;;5103074;28;20197;-47
2021/10/15 02:24:55;;;;;;;18.00;14.40;;;12.90;99.90;;;;;;5091641;28;20223;-52
2021/10/15 02:27:22;;;;;;;15.53;13.60;;;12.90;99.90;;;;;;5101569;28;20201;-50
2021/10/15 02:29:50;;;;;;;17.57;13.63;;;12.90;99.90;;;;;;5094769;28;20712;-52
2021/10/15 02:32:16;;;;;;;17.93;13.83;;;12.90;99.90;;;;;;5095185;28;20228;-48
2021/10/15 02:34:43;;;;;;;16.80;12.83;;;13.00;99.90;;;;;;5095804;28;20634;-54
2021/10/15 02:37:10;;;;;;;18.17;14.20;;;13.00;99.90;;;;;;5093694;28;20196;-45
2021/10/15 02:39:36;;;;;;;18.83;13.50;;;13.00;99.90;;;;;;5101825;28;20198;-50
2021/10/15 02:42:03;;;;;;;15.70;13.23;;;13.00;99.90;;;;;;5087501;27;20200;-49
2021/10/15 02:44:30;;;;;;;14.70;12.47;;;13.00;99.90;;;;;;5106096;28;20224;-46
2021/10/15 02:46:58;;;;;;;16.27;12.93;;;13.00;99.90;;;;;;5103197;27;20212;-51
2021/10/15 02:49:24;;;;;;;18.50;13.17;;;13.00;99.90;;;;;;5106131;28;20228;-49
2021/10/15 02:51:51;;;;;;;16.00;13.13;;;13.00;99.90;;;;;;5104377;28;20547;-51
2021/10/15 02:54:18;;;;;;;16.17;13.73;;;13.00;99.90;;;;;;5107142;28;20213;-52
2021/10/15 02:56:46;;;;;;;16.17;12.17;;;13.00;99.90;;;;;;5096555;27;20232;-49
2021/10/15 02:59:12;;;;;;;17.40;13.10;;;13.00;99.90;;;;;;5104232;28;20801;-48
2021/10/15 03:01:39;;;;;;;15.47;13.10;;;13.00;99.90;;;;;;5110273;28;20208;-45
2021/10/15 03:04:07;;;;;;;17.90;12.80;;;13.00;99.90;;;;;;5108155;28;20221;-47
2021/10/15 03:06:34;;;;;;;17.03;12.37;;;13.00;99.90;;;;;;5110554;28;20201;-49
2021/10/15 03:09:03;;;;;;;15.47;12.13;;;13.00;99.90;;;;;;5106545;28;20396;-48
2021/10/15 03:11:29;;;;;;;18.30;13.13;;;13.10;99.90;;;;;;5093236;27;20208;-48
2021/10/15 03:13:56;;;;;;;18.27;12.50;;;13.10;99.90;;;;;;5102612;28;20562;-55
2021/10/15 03:16:23;;;;;;;18.20;12.83;;;13.10;99.90;;;;;;5106282;28;20225;-46
2021/10/15 03:18:49;;;;;;;16.17;13.07;;;13.10;99.90;;;;;;5104163;28;20201;-52
2021/10/15 03:21:17;;;;;;;15.17;12.77;;;13.10;99.90;;;;;;5104536;28;20194;-51
2021/10/15 03:23:44;;;;;;;15.17;12.87;;;13.10;99.90;;;;;;5104985;27;20224;-50
2021/10/15 03:26:10;;;;;;;17.67;13.00;;;13.10;99.90;;;;;;5093214;27;20215;-51
2021/10/15 03:28:37;;;;;;;16.03;12.93;;;13.10;99.90;;;;;;5105631;28;20201;-45
2021/10/15 03:31:03;;;;;;;19.13;12.37;;;13.10;99.90;;;;;;5101644;27;20228;-46
2021/10/15 03:33:30;;;;;;;20.07;12.07;;;13.10;99.90;;;;;;5105992;27;20574;-47
2021/10/15 03:35:57;;;;;;;14.60;12.67;;;13.10;99.90;;;;;;5103342;28;20682;-45
2021/10/15 03:38:25;;;;;;;15.40;12.57;;;13.10;99.90;;;;;;5108390;28;20756;-43
2021/10/15 03:40:52;;;;;;;17.33;12.33;;;13.10;99.90;;;;;;5102932;28;20201;-56
2021/10/15 03:43:19;;;;;;;17.93;12.20;;;13.10;99.90;;;;;;5095799;27;20205;-45
2021/10/15 03:45:45;;;;;;;15.93;12.17;;;13.10;99.90;;;;;;5104044;28;20193;-53
2021/10/15 03:48:12;;;;;;;20.17;13.43;;;13.10;99.90;;;;;;5103531;28;20196;-48
2021/10/15 03:50:40;;;;;;;15.63;12.57;;;13.10;99.90;;;;;;5105309;27;20217;-53
2021/10/15 03:53:07;;;;;;;15.63;12.37;;;13.10;99.90;;;;;;5101164;27;20200;-46
2021/10/15 03:55:36;;;;;;;14.87;11.53;;;13.10;99.90;;;;;;5114258;27;20201;-51
2021/10/15 03:58:02;;;;;;;16.70;13.13;;;13.10;99.90;;;;;;5089805;27;20212;-52
2021/10/15 04:00:29;;;;;;;17.90;13.30;;;13.10;99.90;;;;;;5096823;28;20728;-45
2021/10/15 04:02:56;;;;;;;15.50;12.20;;;13.10;99.90;;;;;;5108019;28;20272;-52
2021/10/15 04:05:22;;;;;;;16.77;12.67;;;13.10;99.90;;;;;;5106744;28;20225;-50
2021/10/15 04:07:49;;;;;;;15.73;12.63;;;13.10;99.90;;;;;;5099170;28;20204;-46
2021/10/15 04:10:16;;;;;;;20.60;13.47;;;13.10;99.90;;;;;;5104210;28;20213;-47
2021/10/15 04:12:44;;;;;;;18.80;12.10;;;13.10;99.90;;;;;;5102225;28;20200;-46
2021/10/15 04:15:12;;;;;;;18.13;13.23;;;13.10;99.90;;;;;;5092108;27;20561;-51
2021/10/15 04:17:38;;;;;;;17.47;13.10;;;13.10;99.90;;;;;;5101495;28;20190;-50
2021/10/15 04:20:07;;;;;;;15.73;13.03;;;13.10;99.90;;;;;;5109561;28;20189;-52
2021/10/15 04:22:34;;;;;;;15.23;12.20;;;13.10;99.90;;;;;;5100579;28;20205;-47
2021/10/15 04:25:00;;;;;;;14.50;11.60;;;13.10;99.90;;;;;;5105182;28;20221;-46
2021/10/15 04:27:27;;;;;;;18.40;11.70;;;13.10;99.90;;;;;;5092584;28;20216;-50
2021/10/15 04:29:55;;;;;;;19.23;12.60;;;13.10;99.90;;;;;;5090744;27;20449;-47
2021/10/15 04:32:22;;;;;;;15.40;11.43;;;13.10;99.90;;;;;;5099974;28;20655;-49
2021/10/15 04:34:48;;;;;;;13.90;11.20;;;13.10;99.90;;;;;;5099439;28;20213;-50
2021/10/15 04:37:15;;;;;;;13.23;10.67;;;13.10;99.90;;;;;;5099141;28;20208;-45
2021/10/15 04:39:42;;;;;;;14.53;11.33;;;13.10;99.90;;;;;;5102518;27;20201;-52
2021/10/15 04:42:09;;;;;;;16.73;11.77;;;13.10;99.90;;;;;;5102538;28;20200;-46
2021/10/15 04:44:36;;;;;;;16.27;11.83;;;13.10;99.90;;;;;;5092516;27;20229;-47
2021/10/15 04:47:04;;;;;;;13.40;9.93;;;13.10;99.90;;;;;;5100596;28;20188;-46
2021/10/15 04:49:31;;;;;;;17.50;11.30;;;13.10;99.90;;;;;;5099886;28;20193;-46
2021/10/15 04:51:58;;;;;;;15.60;11.20;;;13.10;99.90;;;;;;5088128;28;22884;-48
2021/10/15 04:54:24;;;;;;;12.23;10.60;;;13.10;99.90;;;;;;5101272;27;20590;-46
2021/10/15 04:56:51;;;;;;;16.17;11.23;;;13.10;99.90;;;;;;5100523;28;20576;-54
2021/10/15 04:59:17;;;;;;;15.97;12.07;;;13.10;99.90;;;;;;5103805;28;20214;-44
2021/10/15 05:01:44;;;;;;;17.93;10.90;;;13.10;99.90;;;;;;5087097;27;20202;-54
2021/10/15 05:04:13;;;;;;;14.23;10.27;;;13.10;99.90;;;;;;5094549;28;20220;-48
2021/10/15 05:06:42;;;;;;;13.73;10.83;;;13.10;99.90;;;;;;5093129;27;20201;-54
2021/10/15 05:09:32;;;;;;;14.87;11.47;;;13.10;99.90;;;;;;5094037;28;20192;-51
2021/10/15 05:12:00;;;;;;;15.77;12.17;;;13.00;99.90;;;;;;5093162;28;20193;-47
2021/10/15 05:14:27;;;;;;;19.10;13.73;;;13.00;99.90;;;;;;5102895;28;20217;-50
2021/10/15 05:16:54;;;;;;;17.80;13.40;;;12.90;99.90;;;;;;5086821;27;20929;-49
2021/10/15 05:19:22;;;;;;;20.17;12.60;;;12.90;99.90;;;;;;5098715;28;20209;-50
2021/10/15 05:21:48;;;;;;;15.40;12.73;;;12.80;99.90;;;;;;5096014;28;20205;-53
2021/10/15 05:24:15;;;;;;;17.00;13.20;;;12.80;99.90;;;;;;5097030;28;20261;-49
2021/10/15 05:26:42;;;;;;;20.00;14.77;;;12.80;99.90;;;;;;5095029;28;20570;-52
2021/10/15 05:29:08;;;;;;;20.73;15.57;;;12.80;99.90;;;;;;5095395;28;20200;-46
2021/10/15 05:31:35;;;;;;;18.80;13.47;;;12.80;99.90;;;;;;5084567;27;20287;-54
2021/10/15 05:34:02;;;;;;;16.43;13.30;;;12.80;99.90;;;;;;5100368;28;20201;-48
2021/10/15 05:36:30;;;;;;;17.30;14.73;;;12.80;99.90;;;;;;5090223;28;20208;-51
2021/10/15 05:38:56;;;;;;;18.20;14.30;;;12.80;99.90;;;;;;5089054;28;20808;-48
2021/10/15 05:41:23;;;;;;;18.70;15.47;;;12.80;99.90;;;;;;5102896;28;20198;-49
2021/10/15 05:43:50;;;;;;;19.33;14.67;;;12.80;99.90;;;;;;5096254;28;20226;-47
2021/10/15 05:46:16;;;;;;;19.03;15.77;;;12.80;99.90;;;;;;5089665;28;20207;-47
2021/10/15 05:48:43;;;;;;;16.57;13.80;;;12.80;99.90;;;;;;5101491;27;20209;-53
2021/10/15 05:51:09;;;;;;;16.93;15.07;;;12.70;99.90;;;;;;5095083;28;21037;-48
2021/10/15 05:53:37;;;;;;;20.07;14.03;;;12.70;99.90;;;;;;5098222;28;20232;-52
2021/10/15 05:56:24;;;;;;;21.47;14.53;;;12.70;99.90;;;;;;5090067;28;20205;-50
2021/10/15 05:58:50;;;;;;;21.93;14.90;;;12.70;99.90;;;;;;5099407;28;20194;-48
2021/10/15 06:01:20;;;;;;;19.10;15.30;;;12.70;99.90;;;;;;5100408;28;20204;-50
2021/10/15 06:03:53;;;;;;;18.00;15.37;;;12.70;99.90;;;;;;5087577;28;20213;-47
2021/10/15 06:14:35;;;;;;;20.23;14.37;;;12.50;99.90;;;;;;5093142;28;20296;-45
2021/10/15 06:17:06;;;;;;;18.10;15.03;;;12.50;99.90;;;;;;5087874;27;20204;-46
2021/10/15 06:19:42;;;;;;;22.57;15.53;;;12.40;99.90;;;;;;5105825;27;20562;-48
2021/10/15 06:22:08;;;;;;;23.53;15.37;;;12.40;99.90;;;;;;5096241;28;20218;-49
2021/10/15 06:24:36;;;;;;;21.17;15.40;;;12.40;99.90;;;;;;5095727;27;20784;-51
2021/10/15 06:27:03;;;;;;;19.03;16.47;;;12.40;99.90;;;;;;5092057;28;20209;-49
2021/10/15 06:29:30;;;;;;;28.77;19.83;;;12.30;99.90;;;;;;5095545;28;20578;-47
2021/10/15 06:31:57;;;;;;;25.47;17.77;;;12.30;99.90;;;;;;5087491;28;20220;-47
2021/10/15 06:34:23;;;;;;;25.53;17.83;;;12.20;99.90;;;;;;5090032;27;20562;-52
2021/10/15 06:36:50;;;;;;;18.43;13.07;;;12.30;99.90;;;;;;5089741;27;20197;-50
2021/10/15 06:39:17;;;;;;;12.77;10.63;;;12.20;99.90;;;;;;5091231;28;20194;-52
2021/10/15 06:41:45;;;;;;;9.17;8.23;;;12.10;99.90;;;;;;5103068;27;20933;-46
2021/10/15 06:44:11;;;;;;;8.03;7.10;;;12.00;99.90;;;;;;5104091;28;20702;-46
2021/10/15 06:46:38;;;;;;;6.30;4.80;;;12.00;99.90;;;;;;5090265;27;20201;-46
2021/10/15 06:49:05;;;;;;;7.37;5.20;;;11.90;99.90;;;;;;5095495;27;20212;-44
2021/10/15 06:51:31;;;;;;;3.80;3.50;;;11.80;99.90;;;;;;5090027;27;20221;-52
2021/10/15 06:53:58;;;;;;;3.30;3.00;;;11.70;99.90;;;;;;5103354;28;20224;-44
2021/10/15 06:56:25;;;;;;;3.50;2.20;;;11.70;99.90;;;;;;5093818;28;20555;-49
2021/10/15 06:58:52;;;;;;;6.73;3.23;;;11.60;99.90;;;;;;5105124;28;20196;-51
2021/10/15 07:01:19;;;;;;;1.97;1.30;;;11.50;99.90;;;;;;5103102;28;20280;-49
2021/10/15 07:03:46;;;;;;;1.43;0.73;;;11.40;99.90;;;;;;5093667;27;20228;-54
2021/10/15 07:06:15;;;;;;;2.17;0.80;;;;;;;;;;5109853;27;20690;-47
2021/10/15 07:08:42;;;;;;;2.60;0.87;;;11.20;99.90;;;;;;5094036;28;20189;-53
2021/10/15 07:11:09;;;;;;;2.83;0.60;;;;;;;;;;5093870;28;20721;-47
2021/10/15 07:13:35;;;;;;;1.83;0.40;;;11.00;99.90;;;;;;5102162;28;20317;-49
2021/10/15 07:16:04;;;;;;;1.03;0.50;;;10.90;99.90;;;;;;5101565;28;20202;-51
2021/10/15 07:18:30;;;;;;;1.70;0.53;;;10.80;99.90;;;;;;5089523;28;20213;-51
2021/10/15 07:20:57;;;;;;;2.50;0.40;;;10.80;99.90;;;;;;5090603;27;20205;-47
2021/10/15 07:23:24;;;;;;;0.90;0.47;;;10.70;99.90;;;;;;5093259;28;20563;-53
2021/10/15 07:25:51;;;;;;;1.10;0.37;;;10.70;99.90;;;;;;5095987;28;20209;-50
2021/10/15 07:28:18;;;;;;;1.00;0.50;;;10.70;99.90;;;;;;5101436;28;20601;-48
2021/10/15 07:30:45;;;;;;;1.97;0.50;;;10.70;99.90;;;;;;5095987;28;20221;-51
2021/10/15 07:33:13;;;;;;;3.10;0.60;;;10.70;99.90;;;;;;5101746;28;20584;-48
2021/10/15 07:35:39;;;;;;;1.93;0.70;;;10.70;99.90;;;;;;5083437;27;22352;-50
2021/10/15 07:38:07;;;;;;;1.23;0.60;;;;;;;;;;5093219;27;20209;-53
2021/10/15 07:40:33;;;;;;;1.80;0.57;;;10.60;99.90;;;;;;5090660;27;20185;-51
2021/10/15 07:43:00;;;;;;;1.20;0.30;;;10.60;99.90;;;;;;5095184;28;20201;-54
2021/10/15 07:45:28;;;;;;;1.90;0.60;;;10.60;99.90;;;;;;5097825;28;20986;-47
2021/10/15 07:47:55;;;;;;;2.17;0.57;;;10.60;99.90;;;;;;5100471;28;20202;-45
2021/10/15 07:50:24;;;;;;;2.70;0.63;;;10.60;99.90;;;;;;5100074;28;20204;-55
2021/10/15 07:52:50;;;;;;;1.60;0.40;;;10.60;99.90;;;;;;5096235;27;20216;-52
2021/10/15 07:55:17;;;;;;;1.07;0.43;;;10.50;99.90;;;;;;5095493;27;21194;-53
2021/10/15 07:57:44;;;;;;;4.03;0.50;;;10.50;99.90;;;;;;5099733;28;20209;-54
2021/10/15 08:00:12;;;;;;;3.73;0.50;;;10.40;99.90;;;;;;5099032;27;20236;-49
2021/10/15 08:02:40;;;;;;;2.83;0.60;;;10.40;99.90;;;;;;5100154;28;20284;-55
2021/10/15 08:05:07;;;;;;;2.27;0.50;;;10.40;99.90;;;;;;5097104;28;20217;-51
2021/10/15 08:07:35;;;;;;;1.80;0.40;;;10.40;99.90;;;;;;5078131;27;20217;-51
2021/10/15 08:10:02;;;;;;;2.07;0.73;;;10.40;99.90;;;;;;5094149;28;22844;-49
2021/10/15 08:12:28;;;;;;;2.93;0.50;;;10.30;99.90;;;;;;5083497;28;20210;-56
2021/10/15 08:14:55;;;;;;;4.13;0.57;;;10.40;99.90;;;;;;5095460;28;20744;-49
2021/10/15 08:17:22;;;;;;;2.03;0.63;;;10.30;99.90;;;;;;5091781;27;20209;-54
2021/10/15 08:19:48;;;;;;;2.23;0.73;;;10.30;99.90;;;;;;5090699;28;20733;-50
2021/10/15 08:22:15;;;;;;;3.77;0.60;;;10.30;99.90;;;;;;5086096;27;20205;-50
2021/10/15 08:24:43;;;;;;;3.17;1.03;;;10.30;99.90;;;;;;5102061;27;20220;-54
2021/10/15 08:27:10;;;;;;;2.23;0.60;;;10.30;99.90;;;;;;5084846;27;20310;-52
2021/10/15 08:29:39;;;;;;;3.03;0.80;;;10.30;99.90;;;;;;5099746;28;20201;-51
2021/10/15 08:32:07;;;;;;;1.20;0.63;;;10.30;99.90;;;;;;5095117;28;20268;-46
2021/10/15 08:34:34;;;;;;;3.83;0.80;;;10.30;99.90;;;;;;5093334;27;20218;-48
2021/10/15 08:37:01;;;;;;;1.50;0.73;;;10.30;99.90;;;;;;5093510;28;20198;-54
2021/10/15 08:39:28;;;;;;;1.23;0.60;;;10.30;99.90;;;;;;5092920;27;20201;-50
2021/10/15 08:41:59;;;;;;;2.10;0.80;;;10.30;99.90;;;;;;5090766;27;20959;-53
2021/10/15 08:44:33;;;;;;;2.37;0.80;;;10.30;99.90;;;;;;5099158;28;20227;-50
2021/10/15 08:47:00;;;;;;;0.80;0.67;;;10.30;99.90;;;;;;5097402;28;20569;-50
2021/10/15 08:49:27;;;;;;;2.53;0.90;;;10.30;99.90;;;;;;5095525;28;20698;-52
2021/10/15 08:51:54;;;;;;;3.17;0.80;;;10.40;99.90;;;;;;5091394;28;20296;-51
2021/10/15 08:54:20;;;;;;;2.20;0.90;;;10.40;99.90;;;;;;5089306;27;20217;-50
2021/10/15 08:56:47;;;;;;;1.63;0.60;;;10.40;99.90;;;;;;5088589;28;20267;-50
2021/10/15 08:59:20;;;;;;;3.57;0.60;;;10.40;99.90;;;;;;5087319;28;20200;-53
2021/10/15 09:01:48;;;;;;;5.57;0.90;;;10.50;99.90;;;;;;5094150;27;20304;-51
2021/10/15 09:04:18;;;;;;;1.87;0.73;;;10.50;99.90;;;;;;5098404;28;20221;-56
2021/10/15 09:06:46;;;;;;;2.67;0.80;;;10.40;99.90;;;;;;5082907;28;20197;-51
2021/10/15 09:09:12;;;;;;;6.03;1.23;;;10.40;99.90;;;;;;5089626;27;20213;-48
2021/10/15 09:11:41;;;;;;;3.73;1.43;;;10.40;99.90;;;;;;5098196;28;20213;-54
2021/10/15 09:14:15;;;;;;;4.17;0.80;;;10.50;99.90;;;;;;5078554;27;20540;-48
2021/10/15 09:16:53;;;;;;;2.43;1.00;;;10.50;99.90;;;;;;5097727;28;20220;-50
2021/10/15 09:19:27;;;;;;;2.87;1.33;;;10.60;99.90;;;;;;5088585;28;22172;-50
2021/10/15 09:22:15;;;;;;;3.63;1.07;;;10.60;99.90;;;;;;5089867;28;20200;-48
2021/10/15 09:24:45;;;;;;;3.97;1.13;;;10.60;99.90;;;;;;5076195;27;20236;-50
2021/10/15 09:27:17;;;;;;;3.23;1.10;;;10.60;99.90;;;;;;5095916;28;20553;-50
2021/10/15 09:29:48;;;;;;;5.50;1.00;;;10.60;99.90;;;;;;5093471;28;20278;-48
2021/10/15 09:32:15;;;;;;;2.80;1.03;;;10.70;99.90;;;;;;5098461;28;20262;-50
2021/10/15 09:34:43;;;;;;;3.93;1.40;;;10.70;99.90;;;;;;5087972;28;20228;-48
2021/10/15 09:37:21;;;;;;;3.43;1.20;;;10.70;99.90;;;;;;5088301;28;20694;-49
2021/10/15 09:39:48;;;;;;;4.43;1.10;;;10.80;99.90;;;;;;5092367;28;20185;-51
2021/10/15 09:42:33;;;;;;;6.13;1.13;;;10.90;99.90;;;;;;5089657;28;20201;-54
2021/10/15 09:45:14;;;;;;;8.33;1.40;;;10.90;99.90;;;;;;5100448;28;20221;-50
2021/10/15 09:47:42;;;;;;;7.57;1.70;;;11.00;99.90;;;;;;5089288;28;20204;-56
2021/10/15 09:50:10;;;;;;;5.67;1.10;;;10.90;99.90;;;;;;5096116;28;20208;-45
2021/10/15 09:52:40;;;;;;;4.37;1.53;;;10.90;99.90;;;;;;5096331;28;20219;-54
2021/10/15 09:55:10;;;;;;;8.47;1.70;;;11.00;99.90;;;;;;5097300;28;20779;-47
2021/10/15 09:57:39;;;;;;;6.93;1.40;;;11.00;99.90;;;;;;5092146;27;20213;-51
2021/10/15 10:00:10;;;;;;;5.90;1.40;;;11.10;99.90;;;;;;5103661;28;20242;-47
2021/10/15 10:02:37;;;;;;;7.07;2.07;;;11.10;99.90;;;;;;5095495;28;20197;-54
2021/10/15 10:05:09;;;;;;;3.67;1.37;;;11.20;99.90;;;;;;5093976;27;20225;-48
2021/10/15 10:07:36;;;;;;;6.97;1.20;;;11.20;99.90;;;;;;5090964;28;20201;-52
2021/10/15 10:10:05;;;;;;;6.17;1.60;;;11.20;99.90;;;;;;5099793;28;20200;-48
2021/10/15 10:12:34;;;;;;;9.17;1.60;;;11.30;99.90;;;;;;5081668;27;20217;-50
2021/10/15 10:15:01;;;;;;;6.20;1.23;;;11.40;99.90;;;;;;5100512;28;20224;-50
2021/10/15 10:17:30;;;;;;;5.63;1.87;;;11.50;99.90;;;;;;5100300;28;20203;-53
2021/10/15 10:20:03;;;;;;;8.10;1.30;;;11.60;99.90;;;;;;5091879;28;20205;-48
2021/10/15 10:22:33;;;;;;;6.63;1.87;;;11.60;99.90;;;;;;5096144;28;20670;-52
2021/10/15 10:25:00;;;;;;;4.50;1.37;;;11.70;99.90;;;;;;5095992;28;20225;-50
2021/10/15 10:27:29;;;;;;;8.80;2.30;;;11.80;99.90;;;;;;5079307;27;20349;-49
2021/10/15 10:29:56;;;;;;;9.57;1.73;;;11.80;99.90;;;;;;5095637;28;20201;-48
2021/10/15 10:32:25;;;;;;;9.67;1.40;;;11.90;99.90;;;;;;5094039;28;20220;-57
2021/10/15 10:34:53;;;;;;;12.30;1.83;;;11.90;99.90;;;;;;5101821;28;20225;-49
2021/10/15 10:37:21;;;;;;;6.83;1.70;;;12.00;99.90;;;;;;5098099;28;20204;-47
2021/10/15 10:40:05;;;;;;;10.40;1.87;;;12.00;99.90;;;;;;5093517;28;20576;-47
2021/10/15 10:42:31;;;;;;;8.27;2.90;;;12.10;99.90;;;;;;5093938;28;21070;-49
2021/10/15 10:45:11;;;;;;;12.80;1.60;;;12.20;99.90;;;;;;5089927;27;20228;-51
2021/10/15 10:47:38;;;;;;;6.13;1.33;;;12.20;99.90;;;;;;5097228;28;22204;-46
2021/10/15 10:50:13;;;;;;;12.30;1.97;;;12.20;99.90;;;;;;5099588;28;20201;-53
2021/10/15 10:53:10;;;;;;;8.17;1.87;;;12.30;99.90;;;;;;5101175;28;20221;-45
2021/10/15 10:55:43;;;;;;;11.30;1.90;;;12.40;99.90;;;;;;5093633;28;20205;-47
2021/10/15 10:58:33;;;;;;;11.20;1.63;;;12.40;99.90;;;;;;5100774;27;20276;-54
2021/10/15 11:01:19;;;;;;;8.40;1.90;;;12.30;99.90;;;;;;5090907;27;20205;-51
2021/10/15 11:03:46;;;;;;;9.23;1.40;;;12.40;99.90;;;;;;5097534;28;20217;-48
2021/10/15 11:06:15;;;;;;;10.17;2.07;;;12.50;99.90;;;;;;5094706;28;20533;-52
2021/10/15 11:08:42;;;;;;;12.93;2.70;;;12.60;99.90;;;;;;5103424;28;20197;-50
2021/10/15 11:11:44;;;;;;;7.03;1.43;;;11.20;99.90;;;;;;5096253;28;20278;-50
2021/10/15 11:14:51;;;;;;;7.20;2.07;;;12.70;99.90;;;;;;5091147;27;20273;-50
2021/10/15 11:17:19;;;;;;;11.10;2.00;;;12.80;99.90;;;;;;5093353;28;20212;-53
2021/10/15 11:19:46;;;;;;;15.57;2.23;;;12.80;99.90;;;;;;5095617;28;20205;-51
2021/10/15 11:22:20;;;;;;;8.83;2.13;;;12.80;99.90;;;;;;5092770;27;20229;-49
2021/10/15 11:24:57;;;;;;;5.97;1.83;;;;;;;;;;5094098;28;20702;-46
2021/10/15 11:27:23;;;;;;;4.97;1.33;;;12.90;99.90;;;;;;5089061;28;20189;-48
2021/10/15 11:29:55;;;;;;;6.30;1.37;;;13.00;99.90;;;;;;5102013;28;20193;-49
2021/10/15 11:32:33;;;;;;;4.97;1.20;;;12.90;99.90;;;;;;5084269;27;20213;-50
2021/10/15 11:35:10;;;;;;;7.50;1.33;;;12.80;99.90;;;;;;5098700;28;20296;-48
2021/10/15 11:37:46;;;;;;;3.40;1.03;;;12.70;99.90;;;;;;5088408;28;20200;-51
2021/10/15 11:40:19;;;;;;;7.60;1.60;;;12.60;99.90;;;;;;5102729;28;20201;-47
2021/10/15 11:42:47;;;;;;;7.83;1.57;;;12.50;99.90;;;;;;5087385;28;20201;-51
2021/10/15 11:45:25;;;;;;;7.43;1.53;;;12.40;99.90;;;;;;5101259;28;20729;-47
2021/10/15 11:48:03;;;;;;;7.70;1.57;;;12.30;99.90;;;;;;5091473;27;20321;-49
2021/10/15 11:50:39;;;;;;;7.57;1.60;;;12.20;99.90;;;;;;5083508;27;20217;-50
2021/10/15 11:53:07;;;;;;;5.70;1.40;;;12.20;99.90;;;;;;5096193;28;20217;-48
2021/10/15 11:55:37;;;;;;;7.17;1.43;;;12.20;99.90;;;;;;5097887;28;20213;-51
2021/10/15 11:58:38;;;;;;;4.63;1.10;;;12.20;99.90;;;;;;5101393;28;20232;-49
2021/10/15 12:01:10;;;;;;;8.50;1.73;;;12.30;99.90;;;;;;5105934;27;20212;-49
2021/10/15 12:03:39;;;;;;;6.20;1.00;;;12.50;99.90;;;;;;5086977;27;20226;-47
2021/10/15 12:06:19;;;;;;;6.37;1.17;;;12.70;99.90;;;;;;5097541;28;20213;-51
2021/10/15 12:08:48;;;;;;;7.40;1.47;;;12.80;99.90;;;;;;5098177;28;20185;-48
2021/10/15 12:11:18;;;;;;;6.77;1.70;;;13.00;99.90;;;;;;5098356;28;20216;-51
2021/10/15 12:13:46;;;;;;;5.03;1.20;;;13.00;99.90;;;;;;5091331;28;20222;-49
2021/10/15 12:16:28;;;;;;;4.23;1.20;;;13.00;99.90;;;;;;5096129;27;20873;-48
2021/10/15 12:19:06;;;;;;;6.87;1.03;;;13.00;99.90;;;;;;5105017;28;20654;-48
2021/10/15 12:21:36;;;;;;;5.47;1.23;;;13.00;99.90;;;;;;5076215;27;20212;-48
2021/10/15 12:24:06;;;;;;;3.90;1.30;;;13.10;99.90;;;;;;5095303;28;20228;-53
2021/10/15 12:26:33;;;;;;;6.13;1.07;;;13.10;99.90;;;;;;5094016;28;20899;-48
2021/10/15 12:29:00;;;;;;;6.57;1.67;;;13.20;99.90;;;;;;5097523;28;20185;-51
2021/10/15 12:31:28;;;;;;;4.37;1.00;;;13.30;99.90;;;;;;5086861;27;20204;-47
2021/10/15 12:34:14;;;;;;;7.37;1.60;;;13.40;99.90;;;;;;5094056;27;20213;-47
2021/10/15 12:36:42;;;;;;;10.13;2.37;;;13.50;99.90;;;;;;5094298;27;20331;-53
2021/10/15 12:39:21;;;;;;;9.30;1.83;;;13.70;99.90;;;;;;5098186;27;20926;-50
2021/10/15 12:41:48;;;;;;;4.70;1.30;;;13.80;99.90;;;;;;5089192;28;20212;-51
2021/10/15 12:44:29;;;;;;;9.27;1.40;;;13.90;99.90;;;;;;5095760;28;20225;-51
2021/10/15 12:47:01;;;;;;;4.03;1.10;;;13.90;99.90;;;;;;5095398;27;20201;-55
2021/10/15 12:49:32;;;;;;;5.00;1.63;;;13.80;99.90;;;;;;5080438;27;20889;-50
2021/10/15 12:51:59;;;;;;;9.13;1.47;;;13.70;99.90;;;;;;5102029;28;20197;-50
2021/10/15 12:54:41;;;;;;;7.23;1.93;;;13.70;99.90;;;;;;5084986;28;20221;-53
2021/10/15 12:57:13;;;;;;;14.17;1.83;;;13.60;99.90;;;;;;5104234;28;20197;-54